Time;durP1;ratioP1;P1;durP2;ratioP2;P2;SDS_P1;SDS_P2;PMS_P1;PMS_P2;Temp;Humidity;BMP_temperature;BMP_pressure;BME280_temperature;BME280_humidity;BME280_pressure;Samples;Min_cycle;Max_cycle;Signal;HPM_P1;HPM_P2
2024/01/27 00:01:15;;;;;;;52.72;33.20;;;19.40;71.90;;;;;;5012451;28;20034;-67
2024/01/27 00:03:41;;;;;;;43.92;30.75;;;19.50;71.70;;;;;;5014501;28;20555;-68
2024/01/27 00:06:06;;;;;;;45.80;31.10;;;19.40;71.90;;;;;;5013497;28;20062;-67
2024/01/27 00:08:32;;;;;;;48.33;30.85;;;19.40;72.10;;;;;;5013291;28;20026;-68
2024/01/27 00:10:58;;;;;;;46.90;31.02;;;19.40;72.30;;;;;;5010817;28;20029;-67
2024/01/27 00:13:23;;;;;;;47.53;30.13;;;19.40;72.40;;;;;;5012976;28;20021;-67
2024/01/27 00:15:49;;;;;;;51.33;29.52;;;19.40;72.40;;;;;;5014096;28;20032;-70
2024/01/27 00:18:16;;;;;;;46.25;30.75;;;19.40;72.30;;;;;;5013276;28;20469;-67
2024/01/27 00:20:42;;;;;;;47.28;30.63;;;19.40;72.40;;;;;;5012201;28;20073;-67
2024/01/27 00:23:08;;;;;;;49.15;29.58;;;19.40;72.60;;;;;;5012933;28;20594;-67
2024/01/27 00:25:33;;;;;;;45.58;30.35;;;19.40;72.40;;;;;;5012891;28;20032;-67
2024/01/27 00:27:59;;;;;;;46.08;30.00;;;19.40;72.50;;;;;;5013909;28;20485;-67
2024/01/27 00:30:26;;;;;;;41.03;28.13;;;19.40;72.70;;;;;;5012159;28;20445;-67
2024/01/27 00:32:51;;;;;;;41.75;28.40;;;19.40;72.70;;;;;;5012315;28;20030;-68
2024/01/27 00:35:17;;;;;;;39.42;27.40;;;19.40;72.90;;;;;;5011465;28;20028;-68
2024/01/27 00:37:43;;;;;;;42.67;29.15;;;19.40;73.10;;;;;;5012718;28;20026;-68
2024/01/27 00:40:11;;;;;;;41.92;28.50;;;19.40;72.80;;;;;;5011859;28;20018;-68
2024/01/27 00:42:38;;;;;;;40.00;27.27;;;19.40;73.10;;;;;;5012644;28;20442;-70
2024/01/27 00:45:05;;;;;;;42.08;27.45;;;19.40;73.10;;;;;;5012468;28;20032;-70
2024/01/27 00:47:30;;;;;;;42.72;27.70;;;19.40;73.20;;;;;;5012753;28;20028;-68
2024/01/27 00:49:56;;;;;;;40.83;26.92;;;19.40;73.50;;;;;;5012911;28;20018;-66
2024/01/27 00:52:22;;;;;;;39.90;25.92;;;19.40;73.30;;;;;;5012580;28;20394;-68
2024/01/27 00:54:48;;;;;;;43.20;26.73;;;19.40;73.60;;;;;;5012249;28;20048;-68
2024/01/27 00:57:13;;;;;;;42.20;26.55;;;19.40;73.90;;;;;;5012292;28;20109;-71
2024/01/27 00:59:39;;;;;;;53.97;26.50;;;19.40;73.60;;;;;;5013059;28;20100;-71
2024/01/27 01:02:06;;;;;;;35.55;24.35;;;19.40;73.40;;;;;;5012044;28;20113;-71
2024/01/27 01:04:32;;;;;;;36.58;25.02;;;19.30;73.50;;;;;;5012420;28;20061;-70
2024/01/27 01:06:57;;;;;;;38.13;25.15;;;19.40;73.60;;;;;;5012103;28;20029;-68
2024/01/27 01:09:23;;;;;;;37.45;24.10;;;19.30;73.60;;;;;;5012109;28;20038;-67
2024/01/27 01:11:49;;;;;;;37.47;24.40;;;19.40;73.60;;;;;;5012771;28;20033;-68
2024/01/27 01:14:15;;;;;;;33.90;23.45;;;19.40;73.70;;;;;;5012491;28;20482;-68
2024/01/27 01:16:41;;;;;;;34.50;23.83;;;19.40;73.70;;;;;;5012378;28;20100;-69
2024/01/27 01:19:06;;;;;;;43.88;24.17;;;19.30;73.80;;;;;;5012186;28;20024;-65
2024/01/27 01:21:32;;;;;;;35.58;23.40;;;19.30;73.70;;;;;;5011383;28;20417;-65
2024/01/27 01:23:58;;;;;;;35.95;23.55;;;19.40;73.60;;;;;;5013324;28;20029;-66
2024/01/27 01:26:24;;;;;;;38.13;23.48;;;19.40;73.90;;;;;;5012405;28;20553;-68
2024/01/27 01:28:51;;;;;;;38.00;22.38;;;19.30;74.10;;;;;;5012738;28;20030;-67
2024/01/27 01:31:16;;;;;;;39.08;22.27;;;19.30;73.60;;;;;;5022985;28;20030;-67
2024/01/27 01:33:43;;;;;;;36.25;23.42;;;19.40;73.90;;;;;;5027577;28;20030;-67
2024/01/27 01:36:09;;;;;;;36.97;22.83;;;19.30;73.90;;;;;;5018524;28;20049;-67
2024/01/27 01:38:34;;;;;;;37.20;22.88;;;19.40;74.10;;;;;;5024233;28;20109;-67
2024/01/27 01:41:00;;;;;;;32.45;22.65;;;19.40;74.00;;;;;;5024833;28;20030;-69
2024/01/27 01:43:26;;;;;;;35.25;22.85;;;19.40;74.40;;;;;;5019328;28;20029;-67
2024/01/27 01:45:53;;;;;;;33.42;21.48;;;19.40;74.50;;;;;;5016526;28;20505;-68
2024/01/27 01:48:20;;;;;;;32.80;20.58;;;19.40;74.60;;;;;;5016201;28;20029;-68
2024/01/27 01:50:46;;;;;;;29.95;20.80;;;19.40;74.60;;;;;;5015250;28;20423;-69
2024/01/27 01:53:12;;;;;;;30.38;20.23;;;19.40;74.40;;;;;;5015558;28;20605;-68
2024/01/27 01:55:38;;;;;;;32.17;21.88;;;19.40;74.50;;;;;;5016600;28;20022;-69
2024/01/27 01:58:04;;;;;;;29.52;20.10;;;19.30;74.60;;;;;;5016272;28;20018;-69
2024/01/27 02:00:30;;;;;;;34.13;20.83;;;19.40;74.70;;;;;;5015220;28;20030;-69
2024/01/27 02:02:56;;;;;;;28.70;19.15;;;19.30;74.80;;;;;;5015415;28;20080;-69
2024/01/27 02:05:21;;;;;;;30.70;19.50;;;19.40;74.80;;;;;;5015753;28;20045;-71
2024/01/27 02:07:47;;;;;;;29.25;19.25;;;19.30;74.80;;;;;;5016643;28;20388;-71
2024/01/27 02:10:15;;;;;;;32.25;20.73;;;19.40;75.10;;;;;;5014740;28;20022;-67
2024/01/27 02:12:42;;;;;;;31.77;19.27;;;19.40;74.80;;;;;;5015631;28;20026;-69
2024/01/27 02:15:15;;;;;;;35.38;19.45;;;19.40;74.90;;;;;;5015421;28;20022;-68
2024/01/27 02:17:41;;;;;;;25.73;17.83;;;19.40;74.80;;;;;;5016568;28;20033;-67
2024/01/27 02:20:08;;;;;;;43.63;18.55;;;19.30;74.70;;;;;;5014647;28;20481;-67
2024/01/27 02:22:34;;;;;;;28.38;18.38;;;19.40;74.70;;;;;;5015250;28;20119;-68
2024/01/27 02:25:01;;;;;;;27.65;17.17;;;19.40;74.70;;;;;;5015103;28;20026;-68
2024/01/27 02:27:26;;;;;;;27.33;18.13;;;19.40;74.70;;;;;;5015410;28;20026;-67
2024/01/27 02:29:52;;;;;;;26.88;17.40;;;19.30;74.60;;;;;;5015918;28;20029;-65
2024/01/27 02:32:18;;;;;;;33.90;18.45;;;19.30;74.60;;;;;;5014825;28;20022;-69
2024/01/27 02:34:43;;;;;;;26.90;17.60;;;19.30;74.80;;;;;;5015001;28;20026;-68
2024/01/27 02:37:09;;;;;;;24.85;16.88;;;19.30;74.80;;;;;;5015016;28;20018;-68
2024/01/27 02:39:35;;;;;;;25.65;16.02;;;19.30;74.70;;;;;;5015260;28;20030;-68
2024/01/27 02:42:01;;;;;;;28.25;16.73;;;19.30;74.70;;;;;;5015425;28;20049;-68
2024/01/27 02:44:26;;;;;;;23.85;16.65;;;19.30;74.70;;;;;;5015039;28;20451;-68
2024/01/27 02:46:52;;;;;;;23.73;16.00;;;19.30;74.70;;;;;;5015196;28;20106;-69
2024/01/27 02:49:18;;;;;;;26.75;17.27;;;19.30;74.80;;;;;;5014971;28;20105;-69
2024/01/27 02:51:44;;;;;;;26.48;16.45;;;19.30;74.70;;;;;;5015242;28;20031;-68
2024/01/27 02:54:09;;;;;;;22.10;15.75;;;19.30;74.80;;;;;;5014997;28;20056;-69
2024/01/27 02:56:35;;;;;;;26.48;16.38;;;19.30;74.70;;;;;;5014351;28;20036;-69
2024/01/27 02:59:01;;;;;;;24.50;16.10;;;19.30;74.70;;;;;;5014434;28;20032;-67
2024/01/27 03:01:26;;;;;;;26.08;15.32;;;19.30;74.70;;;;;;5013854;28;20037;-67
2024/01/27 03:03:52;;;;;;;22.30;14.98;;;19.30;74.60;;;;;;5015804;28;20030;-67
2024/01/27 03:06:18;;;;;;;25.38;15.10;;;19.30;74.70;;;;;;5014563;28;20076;-66
2024/01/27 03:08:43;;;;;;;27.88;15.35;;;19.40;74.70;;;;;;5013198;28;20461;-66
2024/01/27 03:11:09;;;;;;;22.00;14.70;;;19.30;74.60;;;;;;5013554;28;20029;-66
2024/01/27 03:13:35;;;;;;;22.83;14.15;;;19.30;74.60;;;;;;5014782;28;20034;-67
2024/01/27 03:16:00;;;;;;;24.38;14.48;;;19.30;74.70;;;;;;5015469;28;20032;-66
2024/01/27 03:18:26;;;;;;;23.02;14.07;;;19.30;74.60;;;;;;5012985;28;20029;-68
2024/01/27 03:20:52;;;;;;;20.98;13.77;;;19.30;74.70;;;;;;5013488;28;20033;-68
2024/01/27 03:23:17;;;;;;;28.80;15.10;;;19.30;74.70;;;;;;5012902;28;20038;-68
2024/01/27 03:25:43;;;;;;;21.25;13.93;;;19.30;74.70;;;;;;5015831;28;20026;-68
2024/01/27 03:28:09;;;;;;;22.50;14.02;;;19.30;74.60;;;;;;5014275;28;20504;-68
2024/01/27 03:30:34;;;;;;;21.15;13.90;;;19.30;74.60;;;;;;5013478;28;20053;-69
2024/01/27 03:33:00;;;;;;;21.17;12.85;;;19.30;74.70;;;;;;5013817;28;20022;-67
2024/01/27 03:35:25;;;;;;;21.58;12.13;;;19.30;74.80;;;;;;5014097;28;20076;-69
2024/01/27 03:37:51;;;;;;;34.13;13.80;;;19.30;74.80;;;;;;5015532;28;20026;-67
2024/01/27 03:40:17;;;;;;;22.80;13.02;;;19.30;74.80;;;;;;5013376;28;20025;-67
2024/01/27 03:42:43;;;;;;;19.60;12.55;;;19.30;75.00;;;;;;5014053;28;20041;-68
2024/01/27 03:45:09;;;;;;;22.63;12.93;;;19.30;74.90;;;;;;5013849;28;20034;-67
2024/01/27 03:47:34;;;;;;;18.05;12.93;;;19.30;75.00;;;;;;5013785;28;20112;-70
2024/01/27 03:50:00;;;;;;;22.40;12.63;;;19.30;75.00;;;;;;5013986;28;20109;-70
2024/01/27 03:52:25;;;;;;;21.92;12.60;;;19.30;75.00;;;;;;5012729;28;20014;-70
2024/01/27 03:54:51;;;;;;;24.35;12.45;;;19.30;75.00;;;;;;5013718;28;20026;-72
2024/01/27 03:57:16;;;;;;;19.48;11.82;;;19.30;75.00;;;;;;5013923;28;20117;-70
2024/01/27 03:59:42;;;;;;;20.25;12.10;;;19.30;75.00;;;;;;5015520;28;20026;-72
2024/01/27 04:02:08;;;;;;;23.75;11.60;;;19.30;75.00;;;;;;5029037;28;20029;-71
2024/01/27 04:04:34;;;;;;;22.40;12.90;;;19.30;75.00;;;;;;5035815;28;20056;-70
2024/01/27 04:07:01;;;;;;;20.08;12.35;;;19.30;75.00;;;;;;5035350;28;20022;-70
2024/01/27 04:09:27;;;;;;;18.65;10.95;;;19.30;74.90;;;;;;5033294;28;20056;-69
2024/01/27 04:11:53;;;;;;;17.60;10.98;;;19.30;74.90;;;;;;5026833;28;20116;-69
2024/01/27 04:14:18;;;;;;;18.75;10.90;;;19.30;74.80;;;;;;5022690;28;20014;-68
2024/01/27 04:16:44;;;;;;;19.48;11.38;;;19.30;74.90;;;;;;5014951;28;20034;-69
2024/01/27 04:19:09;;;;;;;24.05;11.02;;;19.30;74.80;;;;;;5013387;28;20018;-70
2024/01/27 04:21:35;;;;;;;15.90;10.45;;;19.30;74.90;;;;;;5012670;28;20046;-69
2024/01/27 04:24:01;;;;;;;17.85;11.65;;;19.30;74.90;;;;;;5031372;22;20062;-68
2024/01/27 04:26:27;;;;;;;14.02;10.70;;;19.30;74.90;;;;;;5024532;28;20034;-66
2024/01/27 04:28:53;;;;;;;16.75;10.32;;;19.30;74.90;;;;;;5020397;28;20460;-68
2024/01/27 04:31:18;;;;;;;18.42;10.80;;;19.30;74.90;;;;;;5025124;28;20109;-67
2024/01/27 04:33:44;;;;;;;19.83;11.07;;;19.30;74.90;;;;;;5014669;28;20113;-66
2024/01/27 04:36:10;;;;;;;18.88;10.43;;;19.30;74.90;;;;;;4993530;28;20425;-66
2024/01/27 04:38:36;;;;;;;20.60;10.73;;;19.30;75.00;;;;;;4994680;28;20030;-67
2024/01/27 04:41:02;;;;;;;20.23;10.82;;;19.30;75.30;;;;;;4994058;28;20040;-67
2024/01/27 04:43:28;;;;;;;18.30;10.25;;;19.30;75.10;;;;;;4994864;28;20034;-69
2024/01/27 04:45:54;;;;;;;19.67;10.52;;;19.30;75.00;;;;;;4997399;28;20025;-68
2024/01/27 04:48:20;;;;;;;17.63;10.45;;;19.30;75.10;;;;;;4994705;28;20490;-66
2024/01/27 04:50:46;;;;;;;16.60;10.05;;;19.30;75.10;;;;;;4993684;28;20035;-67
2024/01/27 04:53:12;;;;;;;16.25;9.55;;;19.30;75.00;;;;;;4994353;28;20011;-67
2024/01/27 04:55:38;;;;;;;14.13;9.70;;;19.30;75.00;;;;;;4995720;28;20096;-67
2024/01/27 04:58:04;;;;;;;17.58;10.18;;;19.30;75.00;;;;;;4995884;28;20027;-69
2024/01/27 05:00:30;;;;;;;18.77;9.15;;;19.30;75.00;;;;;;4994037;28;20034;-67
2024/01/27 05:02:57;;;;;;;14.43;9.00;;;19.30;75.00;;;;;;4994446;28;20026;-69
2024/01/27 05:05:23;;;;;;;14.75;9.20;;;19.30;75.00;;;;;;4994309;28;20026;-67
2024/01/27 05:07:49;;;;;;;14.15;8.85;;;19.30;75.00;;;;;;5000627;28;20017;-67
2024/01/27 05:10:17;;;;;;;13.90;8.93;;;19.30;75.00;;;;;;4993839;28;20027;-68
2024/01/27 05:12:43;;;;;;;14.32;8.57;;;19.30;75.00;;;;;;4994313;28;20114;-68
2024/01/27 05:15:11;;;;;;;15.50;9.38;;;19.30;75.10;;;;;;4994261;28;20014;-68
2024/01/27 05:17:36;;;;;;;13.73;9.10;;;19.30;75.10;;;;;;4994036;28;20422;-68
2024/01/27 05:20:04;;;;;;;15.43;8.45;;;19.30;75.00;;;;;;4994934;28;20067;-68
2024/01/27 05:22:30;;;;;;;13.73;9.00;;;19.30;75.00;;;;;;4994642;28;20027;-65
2024/01/27 05:24:55;;;;;;;12.45;8.02;;;19.30;74.90;;;;;;4994192;28;20378;-69
2024/01/27 05:27:21;;;;;;;14.55;8.20;;;19.30;74.90;;;;;;4994183;28;20375;-67
2024/01/27 05:29:47;;;;;;;13.07;8.10;;;19.30;74.90;;;;;;4997042;28;20023;-67
2024/01/27 05:32:12;;;;;;;14.18;8.77;;;19.30;75.00;;;;;;4992459;28;20023;-68
2024/01/27 05:34:38;;;;;;;13.25;8.23;;;19.20;75.00;;;;;;4994007;28;20022;-67
2024/01/27 05:37:03;;;;;;;26.38;8.57;;;19.30;74.90;;;;;;4994081;28;20088;-67
2024/01/27 05:39:29;;;;;;;16.02;8.05;;;19.30;74.90;;;;;;4994034;28;20103;-67
2024/01/27 05:41:55;;;;;;;12.07;7.75;;;19.30;74.90;;;;;;5002984;28;20022;-70
2024/01/27 05:44:21;;;;;;;23.58;8.52;;;19.30;74.90;;;;;;4994178;28;20035;-69
2024/01/27 05:46:46;;;;;;;14.95;7.40;;;19.30;75.10;;;;;;4994156;28;20070;-70
2024/01/27 05:49:12;;;;;;;13.75;8.25;;;19.30;75.10;;;;;;4993821;28;20394;-70
2024/01/27 05:51:38;;;;;;;15.35;8.15;;;19.30;75.10;;;;;;4994829;28;20445;-68
2024/01/27 05:54:04;;;;;;;19.17;7.78;;;19.30;75.10;;;;;;4998136;28;20401;-69
2024/01/27 05:56:29;;;;;;;12.95;7.57;;;19.30;75.20;;;;;;5006053;28;20049;-68
2024/01/27 05:58:55;;;;;;;14.30;7.75;;;19.30;75.30;;;;;;4994241;28;20018;-70
2024/01/27 06:01:21;;;;;;;17.90;7.72;;;19.30;75.20;;;;;;4993384;28;20113;-67
2024/01/27 06:03:47;;;;;;;20.05;7.78;;;19.30;75.30;;;;;;4996636;28;20038;-67
2024/01/27 06:06:12;;;;;;;14.07;6.82;;;19.30;75.40;;;;;;4994344;28;20030;-67
2024/01/27 06:08:38;;;;;;;15.88;7.53;;;19.40;75.30;;;;;;4997696;28;20057;-67
2024/01/27 06:11:04;;;;;;;10.57;7.15;;;19.30;75.30;;;;;;4992886;28;20042;-67
2024/01/27 06:13:30;;;;;;;12.60;6.82;;;19.40;75.30;;;;;;4993847;28;20402;-70
2024/01/27 06:15:55;;;;;;;17.70;7.25;;;19.40;75.10;;;;;;4996742;28;20108;-71
2024/01/27 06:18:21;;;;;;;15.23;7.35;;;19.40;74.90;;;;;;4993701;28;20141;-68
2024/01/27 06:20:47;;;;;;;15.73;6.90;;;19.40;74.70;;;;;;4992911;28;20027;-69
2024/01/27 06:23:13;;;;;;;13.95;7.65;;;19.40;74.50;;;;;;4992386;28;20026;-71
2024/01/27 06:25:39;;;;;;;14.13;6.22;;;19.40;74.30;;;;;;4995215;28;20121;-69
2024/01/27 06:28:04;;;;;;;24.85;6.85;;;19.40;74.30;;;;;;4994932;28;20506;-71
2024/01/27 06:30:30;;;;;;;13.65;4.75;;;19.40;72.20;;;;;;5000395;28;20034;-71
2024/01/27 06:32:56;;;;;;;18.17;4.53;;;18.30;61.90;;;;;;4997016;28;20022;-71
2024/01/27 06:35:21;;;;;;;12.15;4.25;;;17.40;58.80;;;;;;4997000;28;20089;-72
2024/01/27 06:37:47;;;;;;;16.38;4.40;;;16.80;59.60;;;;;;5000310;28;20022;-71
2024/01/27 06:40:13;;;;;;;16.05;4.20;;;16.60;60.50;;;;;;5000393;28;20490;-71
2024/01/27 06:42:39;;;;;;;8.57;3.50;;;16.50;59.80;;;;;;5007824;28;20053;-69
2024/01/27 06:45:05;;;;;;;18.95;5.60;;;16.50;66.10;;;;;;4996840;28;20054;-70
2024/01/27 06:47:31;;;;;;;16.35;5.90;;;16.90;71.20;;;;;;5012293;28;20030;-70
2024/01/27 06:49:56;;;;;;;29.65;6.70;;;17.20;73.20;;;;;;4998705;28;20029;-68
2024/01/27 06:52:22;;;;;;;11.63;5.93;;;17.50;73.70;;;;;;4995065;28;20030;-71
2024/01/27 06:54:48;;;;;;;14.15;5.70;;;17.70;73.20;;;;;;4994841;28;20101;-70
2024/01/27 06:57:20;;;;;;;9.73;5.30;;;17.90;72.90;;;;;;4994812;28;20035;-69
2024/01/27 06:59:55;;;;;;;26.98;7.05;;;18.10;73.00;;;;;;4997871;28;20097;-66
2024/01/27 07:02:27;;;;;;;24.63;6.80;;;18.20;73.20;;;;;;4994664;28;20022;-68
2024/01/27 07:04:53;;;;;;;37.35;6.88;;;18.40;73.80;;;;;;5001363;28;20034;-65
2024/01/27 07:07:25;;;;;;;21.88;6.32;;;18.50;73.80;;;;;;4998313;28;20028;-65
2024/01/27 07:09:50;;;;;;;19.98;6.28;;;18.50;73.50;;;;;;5000451;28;20026;-65
2024/01/27 07:12:16;;;;;;;16.30;6.60;;;18.60;73.40;;;;;;4996073;28;20113;-65
2024/01/27 07:14:42;;;;;;;13.88;5.40;;;18.70;73.20;;;;;;4996328;28;20022;-65
2024/01/27 07:17:07;;;;;;;22.95;6.32;;;18.70;73.20;;;;;;4995172;28;20493;-65
2024/01/27 07:19:33;;;;;;;19.48;6.03;;;18.70;73.10;;;;;;4996467;28;20435;-67
2024/01/27 07:22:03;;;;;;;16.35;5.85;;;18.80;73.10;;;;;;4998852;28;20025;-65
2024/01/27 07:24:29;;;;;;;14.57;5.57;;;18.80;73.00;;;;;;4996208;28;20030;-63
2024/01/27 07:26:55;;;;;;;19.35;5.90;;;18.90;72.90;;;;;;4996379;28;20031;-66
2024/01/27 07:29:20;;;;;;;17.52;5.63;;;18.90;72.90;;;;;;4996024;28;20030;-65
2024/01/27 07:31:47;;;;;;;15.70;5.72;;;18.90;73.10;;;;;;4998430;28;20027;-65
2024/01/27 07:34:12;;;;;;;19.80;5.80;;;18.90;73.30;;;;;;4996276;28;20390;-65
2024/01/27 07:36:38;;;;;;;19.15;6.00;;;19.00;73.80;;;;;;4996177;28;20030;-63
2024/01/27 07:39:07;;;;;;;26.17;6.07;;;18.90;73.60;;;;;;4995921;28;20041;-66
2024/01/27 07:41:33;;;;;;;23.42;6.68;;;19.00;73.70;;;;;;4995685;28;20030;-66
2024/01/27 07:44:13;;;;;;;23.45;5.88;;;19.00;73.70;;;;;;5000774;28;20438;-65
2024/01/27 07:46:39;;;;;;;17.50;5.50;;;19.00;73.80;;;;;;5007040;28;20053;-68
2024/01/27 07:49:06;;;;;;;23.42;6.25;;;19.00;73.60;;;;;;4995898;28;20022;-66
2024/01/27 07:51:32;;;;;;;19.17;5.97;;;19.00;73.70;;;;;;4995233;28;20617;-66
2024/01/27 07:53:58;;;;;;;19.08;6.18;;;19.00;73.80;;;;;;4998889;28;20044;-66
2024/01/27 07:56:24;;;;;;;14.55;5.80;;;19.00;73.90;;;;;;4995778;28;20084;-68
2024/01/27 07:58:50;;;;;;;14.20;5.32;;;19.00;74.10;;;;;;4996425;28;20026;-66
2024/01/27 08:01:19;;;;;;;17.25;5.85;;;19.00;74.40;;;;;;5000701;28;20113;-66
2024/01/27 08:03:45;;;;;;;22.20;6.43;;;19.00;74.90;;;;;;4998694;28;20026;-67
2024/01/27 08:06:17;;;;;;;20.70;7.32;;;19.10;75.20;;;;;;4995556;28;20065;-68
2024/01/27 08:08:48;;;;;;;18.58;6.30;;;19.00;75.50;;;;;;4999354;28;20065;-66
2024/01/27 08:11:18;;;;;;;17.95;6.03;;;19.00;75.50;;;;;;4994570;28;20050;-66
2024/01/27 08:13:43;;;;;;;31.98;6.55;;;19.10;75.40;;;;;;5004563;28;20080;-66
2024/01/27 08:16:12;;;;;;;23.13;6.60;;;19.00;75.20;;;;;;4995717;28;20026;-67
2024/01/27 08:18:38;;;;;;;19.52;6.40;;;19.10;75.20;;;;;;4995463;28;20038;-67
2024/01/27 08:21:04;;;;;;;18.00;5.57;;;19.10;75.10;;;;;;4994675;28;20482;-66
2024/01/27 08:23:30;;;;;;;14.85;6.13;;;19.10;75.00;;;;;;4995275;28;20482;-66
2024/01/27 08:25:56;;;;;;;15.30;5.63;;;19.10;75.00;;;;;;4998127;28;20108;-66
2024/01/27 08:28:22;;;;;;;16.90;5.68;;;19.10;74.90;;;;;;4995342;28;20034;-67
2024/01/27 08:30:47;;;;;;;16.25;5.63;;;19.10;74.80;;;;;;4994572;28;20026;-67
2024/01/27 08:33:13;;;;;;;12.75;5.50;;;19.10;74.70;;;;;;5002232;28;20018;-66
2024/01/27 08:35:39;;;;;;;5.90;2.42;;;19.10;74.70;;;;;;5010183;28;20049;-66
2024/01/27 08:38:05;;;;;;;10.52;2.65;;;19.20;75.00;;;;;;5011221;28;21495;-66
2024/01/27 08:40:32;;;;;;;7.75;2.92;;;19.40;74.80;;;;;;4994455;28;20741;-65
2024/01/27 08:42:57;;;;;;;7.97;2.80;;;19.60;74.40;;;;;;5002502;28;20030;-67
2024/01/27 08:45:23;;;;;;;9.85;3.50;;;19.60;74.70;;;;;;4995362;28;20470;-67
2024/01/27 08:47:49;;;;;;;9.88;3.55;;;19.60;74.50;;;;;;4998377;28;20109;-68
2024/01/27 08:50:14;;;;;;;8.52;3.85;;;19.50;74.80;;;;;;4997342;28;20050;-67
2024/01/27 08:52:40;;;;;;;14.45;4.80;;;19.40;75.10;;;;;;4994782;28;20103;-66
2024/01/27 08:55:06;;;;;;;16.23;3.97;;;19.40;75.10;;;;;;4994590;28;20026;-68
2024/01/27 08:57:32;;;;;;;16.42;4.45;;;19.40;75.70;;;;;;4995168;28;20026;-69
2024/01/27 08:59:57;;;;;;;15.98;4.25;;;19.40;75.60;;;;;;4997408;28;20505;-66
2024/01/27 09:02:23;;;;;;;20.02;4.70;;;19.40;75.50;;;;;;4994802;28;20033;-67
2024/01/27 09:04:49;;;;;;;11.38;3.05;;;19.50;75.80;;;;;;4993749;28;20033;-67
2024/01/27 09:07:14;;;;;;;16.02;3.95;;;19.50;75.70;;;;;;5006754;28;20060;-68
2024/01/27 09:09:40;;;;;;;18.90;4.45;;;19.50;75.60;;;;;;4999038;28;20046;-67
2024/01/27 09:12:06;;;;;;;10.85;4.00;;;19.40;75.50;;;;;;4995201;28;20035;-67
2024/01/27 09:14:33;;;;;;;18.20;4.75;;;19.40;75.10;;;;;;4994575;28;20026;-66
2024/01/27 09:16:59;;;;;;;23.08;4.70;;;19.40;75.20;;;;;;4994595;28;20037;-68
2024/01/27 09:19:25;;;;;;;27.15;3.83;;;19.40;75.30;;;;;;4993333;28;20125;-68
2024/01/27 09:21:51;;;;;;;20.02;4.55;;;19.50;75.20;;;;;;4996372;28;20140;-66
2024/01/27 09:24:16;;;;;;;29.83;3.80;;;19.40;75.20;;;;;;4994414;28;20034;-67
2024/01/27 09:26:42;;;;;;;22.55;3.80;;;19.40;75.10;;;;;;4994644;28;20047;-68
2024/01/27 09:29:09;;;;;;;20.30;3.53;;;19.40;75.20;;;;;;4994527;28;20053;-68
2024/01/27 09:31:35;;;;;;;22.58;4.13;;;19.40;75.10;;;;;;4994396;28;20033;-67
2024/01/27 09:34:01;;;;;;;19.00;3.33;;;19.40;75.00;;;;;;4994724;28;20545;-67
2024/01/27 09:36:26;;;;;;;9.57;3.00;;;19.40;75.00;;;;;;4993205;28;20117;-68
2024/01/27 09:38:53;;;;;;;15.27;3.35;;;19.30;73.20;;;;;;4994491;28;20097;-69
2024/01/27 09:41:19;;;;;;;8.25;2.38;;;19.20;74.20;;;;;;5001772;28;20030;-68
2024/01/27 09:43:46;;;;;;;15.40;3.60;;;19.20;74.60;;;;;;4999247;28;20030;-68
2024/01/27 09:46:16;;;;;;;14.68;3.75;;;19.20;74.60;;;;;;5001094;28;20386;-66
2024/01/27 09:48:42;;;;;;;9.88;2.72;;;19.20;74.50;;;;;;4994668;28;20118;-68
2024/01/27 09:51:09;;;;;;;8.68;3.17;;;19.30;74.40;;;;;;4993797;28;20026;-69
2024/01/27 09:53:35;;;;;;;10.80;3.60;;;19.20;74.20;;;;;;4995415;28;20506;-68
2024/01/27 09:56:03;;;;;;;14.88;3.00;;;19.20;74.10;;;;;;4997620;28;20048;-67
2024/01/27 09:58:30;;;;;;;10.25;3.03;;;19.20;74.10;;;;;;5001861;28;20034;-68
2024/01/27 10:01:00;;;;;;;8.85;3.25;;;19.20;74.00;;;;;;4995313;28;20031;-68
2024/01/27 10:03:27;;;;;;;11.38;2.58;;;19.20;74.00;;;;;;5000640;28;20033;-69
2024/01/27 10:05:57;;;;;;;9.00;3.17;;;19.20;74.00;;;;;;5005824;28;20132;-68
2024/01/27 10:08:24;;;;;;;12.15;3.05;;;19.20;73.90;;;;;;5012101;28;20022;-68
2024/01/27 10:10:56;;;;;;;7.95;2.38;;;19.20;73.90;;;;;;5004183;28;20030;-67
2024/01/27 10:13:28;;;;;;;7.13;2.00;;;19.20;73.80;;;;;;5022530;28;20022;-69
2024/01/27 10:16:04;;;;;;;11.70;2.25;;;19.20;73.80;;;;;;5015416;28;20037;-68
2024/01/27 10:18:31;;;;;;;5.95;2.45;;;19.20;73.80;;;;;;5004038;28;20060;-66
2024/01/27 10:20:58;;;;;;;14.73;2.63;;;19.20;73.70;;;;;;5005315;28;20493;-68
2024/01/27 10:23:24;;;;;;;6.43;2.33;;;19.20;73.70;;;;;;4997874;28;20081;-71
2024/01/27 10:25:50;;;;;;;8.93;2.25;;;19.20;73.70;;;;;;4983858;28;20062;-68
2024/01/27 10:28:16;;;;;;;7.10;2.35;;;19.20;73.70;;;;;;4997738;28;20026;-67
2024/01/27 10:30:42;;;;;;;5.25;2.35;;;19.10;73.60;;;;;;5004516;28;20072;-68
2024/01/27 10:33:13;;;;;;;5.50;2.60;;;19.10;73.60;;;;;;5004570;28;20023;-68
2024/01/27 10:35:39;;;;;;;;;;;19.10;73.50;;;;;;4999577;28;20030;-68
2024/01/27 10:38:05;;;;;;;4.15;1.85;;;19.10;73.50;;;;;;4999393;28;19928;-68
2024/01/27 10:40:31;;;;;;;8.30;1.90;;;19.10;73.50;;;;;;4996775;28;20494;-68
2024/01/27 10:43:04;;;;;;;5.13;1.80;;;19.20;73.50;;;;;;5005832;28;20518;-68
2024/01/27 10:45:36;;;;;;;4.90;2.00;;;19.20;73.50;;;;;;4997451;28;20025;-68
2024/01/27 10:48:03;;;;;;;5.18;2.20;;;19.20;73.40;;;;;;5005305;28;20028;-65
2024/01/27 10:50:29;;;;;;;4.63;1.80;;;19.20;73.40;;;;;;4996117;28;20030;-68
2024/01/27 10:52:57;;;;;;;5.40;2.20;;;19.20;73.40;;;;;;4997192;28;20062;-68
2024/01/27 10:55:24;;;;;;;4.97;1.98;;;19.10;73.40;;;;;;4997211;28;20394;-68
2024/01/27 10:57:53;;;;;;;4.55;1.40;;;19.20;73.40;;;;;;5000553;28;20021;-69
2024/01/27 11:00:19;;;;;;;4.00;1.40;;;19.10;73.40;;;;;;4996194;28;20691;-67
2024/01/27 11:02:45;;;;;;;3.90;1.85;;;19.20;73.30;;;;;;4995925;28;20113;-68
2024/01/27 11:05:15;;;;;;;3.40;1.50;;;19.20;73.30;;;;;;4995700;28;20470;-68
2024/01/27 11:07:42;;;;;;;4.18;1.45;;;19.20;73.30;;;;;;5003959;28;20038;-66
2024/01/27 11:10:08;;;;;;;3.20;1.50;;;19.10;73.30;;;;;;4999961;28;20022;-68
2024/01/27 11:12:34;;;;;;;3.92;1.55;;;19.20;73.20;;;;;;5006782;28;20052;-68
2024/01/27 11:15:00;;;;;;;7.13;2.00;;;19.10;73.20;;;;;;4996849;28;20027;-68
2024/01/27 11:17:26;;;;;;;4.85;1.70;;;19.20;73.20;;;;;;4996588;28;20023;-68
2024/01/27 11:19:53;;;;;;;3.95;1.60;;;19.10;73.10;;;;;;5000064;28;20030;-67
2024/01/27 11:22:26;;;;;;;4.15;1.48;;;19.20;73.10;;;;;;4996516;28;20105;-68
2024/01/27 11:24:53;;;;;;;4.00;1.13;;;19.20;73.20;;;;;;4996509;28;20042;-68
2024/01/27 11:27:26;;;;;;;7.00;1.38;;;19.10;73.10;;;;;;4996680;28;20022;-66
2024/01/27 11:29:51;;;;;;;2.35;1.48;;;19.20;73.10;;;;;;4999834;28;20026;-66
2024/01/27 11:32:17;;;;;;;2.78;1.38;;;19.10;73.10;;;;;;4994799;28;20071;-67
2024/01/27 11:34:44;;;;;;;5.32;1.63;;;19.10;73.10;;;;;;4996564;28;20022;-68
2024/01/27 11:37:15;;;;;;;3.30;1.60;;;19.10;73.10;;;;;;4996513;28;20034;-67
2024/01/27 11:39:40;;;;;;;4.75;1.80;;;19.10;73.00;;;;;;4998351;28;20022;-68
2024/01/27 11:42:13;;;;;;;3.28;1.40;;;19.10;73.00;;;;;;5006802;28;20026;-67
2024/01/27 11:44:39;;;;;;;4.50;1.65;;;19.10;73.00;;;;;;4996148;28;20034;-67
2024/01/27 11:47:13;;;;;;;1.73;1.13;;;19.10;73.00;;;;;;4996317;28;20419;-68
2024/01/27 11:49:39;;;;;;;4.82;1.75;;;19.10;73.00;;;;;;4997714;28;20026;-67
2024/01/27 11:52:06;;;;;;;1.85;1.23;;;19.10;73.00;;;;;;4995953;28;20022;-68
2024/01/27 11:54:32;;;;;;;3.33;1.55;;;19.10;72.90;;;;;;5002448;28;20026;-67
2024/01/27 11:56:58;;;;;;;2.42;1.20;;;19.10;72.90;;;;;;4996670;28;20022;-68
2024/01/27 11:59:23;;;;;;;4.03;1.90;;;19.10;73.00;;;;;;4996001;28;20032;-67
2024/01/27 12:01:50;;;;;;;3.08;1.38;;;19.10;72.90;;;;;;5002100;28;20037;-68
2024/01/27 12:04:16;;;;;;;3.58;1.50;;;19.10;73.00;;;;;;5009651;28;20023;-66
2024/01/27 12:06:43;;;;;;;4.93;1.35;;;19.10;73.00;;;;;;4996050;28;20034;-68
2024/01/27 12:09:11;;;;;;;1.30;0.90;;;19.20;72.90;;;;;;4994713;28;20028;-68
2024/01/27 12:11:41;;;;;;;1.98;0.98;;;19.10;72.80;;;;;;4996340;28;20022;-68
2024/01/27 12:14:07;;;;;;;3.20;1.55;;;19.20;72.80;;;;;;4996854;28;20054;-69
2024/01/27 12:16:33;;;;;;;3.20;1.20;;;19.10;72.70;;;;;;4995655;28;20141;-68
2024/01/27 12:18:59;;;;;;;2.80;1.20;;;19.10;72.70;;;;;;4995954;28;20038;-67
2024/01/27 12:21:25;;;;;;;2.13;1.05;;;19.10;72.70;;;;;;4994978;28;20019;-67
2024/01/27 12:23:54;;;;;;;3.33;1.77;;;19.10;72.70;;;;;;4999153;28;20080;-68
2024/01/27 12:26:25;;;;;;;2.08;1.10;;;19.10;72.70;;;;;;4995324;28;20038;-66
2024/01/27 12:28:51;;;;;;;4.53;1.23;;;19.10;72.70;;;;;;4994829;28;20101;-67
2024/01/27 12:31:18;;;;;;;2.92;1.20;;;19.10;72.70;;;;;;4994809;28;20114;-67